sensor_id;sensor_type;location;lat;lon;timestamp;P1;durP1;ratioP1;P2;durP2;ratioP2
40871;SDS011;26591;43.264;26.940;2023-06-04T00:02:18;6.72;;;3.17;;
40871;SDS011;26591;43.264;26.940;2023-06-04T00:04:44;9.00;;;3.00;;
40871;SDS011;26591;43.264;26.940;2023-06-04T00:07:09;5.10;;;2.78;;
40871;SDS011;26591;43.264;26.940;2023-06-04T00:09:35;6.40;;;2.15;;
40871;SDS011;26591;43.264;26.940;2023-06-04T00:12:01;7.78;;;2.90;;
40871;SDS011;26591;43.264;26.940;2023-06-04T00:14:26;5.95;;;2.63;;
40871;SDS011;26591;43.264;26.940;2023-06-04T00:16:52;13.73;;;3.10;;
40871;SDS011;26591;43.264;26.940;2023-06-04T00:19:18;13.50;;;2.97;;
40871;SDS011;26591;43.264;26.940;2023-06-04T00:21:43;7.63;;;2.40;;
40871;SDS011;26591;43.264;26.940;2023-06-04T00:24:10;13.68;;;2.80;;
40871;SDS011;26591;43.264;26.940;2023-06-04T00:26:37;8.90;;;3.13;;
40871;SDS011;26591;43.264;26.940;2023-06-04T00:29:03;6.20;;;2.58;;
40871;SDS011;26591;43.264;26.940;2023-06-04T00:31:28;6.30;;;2.90;;
40871;SDS011;26591;43.264;26.940;2023-06-04T00:33:54;5.45;;;2.53;;
40871;SDS011;26591;43.264;26.940;2023-06-04T00:36:20;12.90;;;3.38;;
40871;SDS011;26591;43.264;26.940;2023-06-04T00:38:46;8.10;;;2.60;;
40871;SDS011;26591;43.264;26.940;2023-06-04T00:41:11;6.10;;;3.17;;
40871;SDS011;26591;43.264;26.940;2023-06-04T00:43:37;5.57;;;2.55;;
40871;SDS011;26591;43.264;26.940;2023-06-04T00:46:02;11.25;;;2.90;;
40871;SDS011;26591;43.264;26.940;2023-06-04T00:48:28;11.18;;;2.70;;
40871;SDS011;26591;43.264;26.940;2023-06-04T00:50:55;9.18;;;3.10;;
40871;SDS011;26591;43.264;26.940;2023-06-04T00:53:22;10.82;;;2.80;;
40871;SDS011;26591;43.264;26.940;2023-06-04T00:55:49;9.98;;;2.30;;
40871;SDS011;26591;43.264;26.940;2023-06-04T00:58:15;9.40;;;2.50;;
40871;SDS011;26591;43.264;26.940;2023-06-04T01:00:44;7.72;;;2.63;;
40871;SDS011;26591;43.264;26.940;2023-06-04T01:03:17;5.28;;;2.65;;
40871;SDS011;26591;43.264;26.940;2023-06-04T01:05:48;9.38;;;2.70;;
40871;SDS011;26591;43.264;26.940;2023-06-04T01:08:15;8.82;;;2.90;;
40871;SDS011;26591;43.264;26.940;2023-06-04T01:10:56;7.53;;;2.88;;
40871;SDS011;26591;43.264;26.940;2023-06-04T01:13:22;6.35;;;2.42;;
40871;SDS011;26591;43.264;26.940;2023-06-04T01:15:48;11.02;;;2.60;;
40871;SDS011;26591;43.264;26.940;2023-06-04T01:18:15;9.20;;;2.80;;
40871;SDS011;26591;43.264;26.940;2023-06-04T01:20:53;10.68;;;2.67;;
40871;SDS011;26591;43.264;26.940;2023-06-04T01:26:10;8.45;;;2.95;;
40871;SDS011;26591;43.264;26.940;2023-06-04T01:28:37;9.32;;;2.88;;
40871;SDS011;26591;43.264;26.940;2023-06-04T01:31:04;10.55;;;2.85;;
40871;SDS011;26591;43.264;26.940;2023-06-04T01:33:33;18.50;;;3.33;;
40871;SDS011;26591;43.264;26.940;2023-06-04T01:36:01;11.18;;;3.47;;
40871;SDS011;26591;43.264;26.940;2023-06-04T01:38:27;17.35;;;3.40;;
40871;SDS011;26591;43.264;26.940;2023-06-04T01:40:54;11.25;;;3.90;;
40871;SDS011;26591;43.264;26.940;2023-06-04T01:43:21;14.52;;;3.55;;
40871;SDS011;26591;43.264;26.940;2023-06-04T01:45:47;6.80;;;3.17;;
40871;SDS011;26591;43.264;26.940;2023-06-04T01:48:13;10.68;;;3.63;;
40871;SDS011;26591;43.264;26.940;2023-06-04T01:50:39;8.95;;;3.55;;
40871;SDS011;26591;43.264;26.940;2023-06-04T01:53:04;6.75;;;3.25;;
40871;SDS011;26591;43.264;26.940;2023-06-04T01:55:30;8.27;;;3.42;;
40871;SDS011;26591;43.264;26.940;2023-06-04T01:57:58;13.32;;;3.08;;
40871;SDS011;26591;43.264;26.940;2023-06-04T02:00:24;7.80;;;3.35;;
40871;SDS011;26591;43.264;26.940;2023-06-04T02:02:50;5.43;;;3.40;;
40871;SDS011;26591;43.264;26.940;2023-06-04T02:05:16;8.70;;;3.72;;
40871;SDS011;26591;43.264;26.940;2023-06-04T02:07:43;7.30;;;3.45;;
40871;SDS011;26591;43.264;26.940;2023-06-04T02:10:16;5.32;;;2.78;;
40871;SDS011;26591;43.264;26.940;2023-06-04T02:15:37;7.53;;;3.33;;
40871;SDS011;26591;43.264;26.940;2023-06-04T02:20:44;9.02;;;3.30;;
40871;SDS011;26591;43.264;26.940;2023-06-04T02:23:11;5.15;;;2.75;;
40871;SDS011;26591;43.264;26.940;2023-06-04T02:25:37;12.65;;;3.90;;
40871;SDS011;26591;43.264;26.940;2023-06-04T02:28:02;8.77;;;3.05;;
40871;SDS011;26591;43.264;26.940;2023-06-04T02:30:28;4.45;;;3.13;;
40871;SDS011;26591;43.264;26.940;2023-06-04T02:32:53;11.52;;;3.38;;
40871;SDS011;26591;43.264;26.940;2023-06-04T02:35:20;4.10;;;2.90;;
40871;SDS011;26591;43.264;26.940;2023-06-04T02:37:48;5.72;;;2.92;;
40871;SDS011;26591;43.264;26.940;2023-06-04T02:40:14;7.38;;;3.47;;
40871;SDS011;26591;43.264;26.940;2023-06-04T02:42:39;6.80;;;3.05;;
40871;SDS011;26591;43.264;26.940;2023-06-04T02:45:05;5.47;;;2.90;;
40871;SDS011;26591;43.264;26.940;2023-06-04T02:47:31;9.73;;;3.13;;
40871;SDS011;26591;43.264;26.940;2023-06-04T02:49:56;7.47;;;3.08;;
40871;SDS011;26591;43.264;26.940;2023-06-04T02:52:22;9.70;;;3.08;;
40871;SDS011;26591;43.264;26.940;2023-06-04T02:54:47;7.45;;;3.35;;
40871;SDS011;26591;43.264;26.940;2023-06-04T02:57:13;12.35;;;3.42;;
40871;SDS011;26591;43.264;26.940;2023-06-04T02:59:38;5.50;;;3.00;;
40871;SDS011;26591;43.264;26.940;2023-06-04T03:02:04;7.55;;;3.10;;
40871;SDS011;26591;43.264;26.940;2023-06-04T03:04:30;5.63;;;2.80;;
40871;SDS011;26591;43.264;26.940;2023-06-04T03:07:02;7.18;;;3.67;;
40871;SDS011;26591;43.264;26.940;2023-06-04T03:09:31;7.15;;;2.97;;
40871;SDS011;26591;43.264;26.940;2023-06-04T03:11:59;5.82;;;3.00;;
40871;SDS011;26591;43.264;26.940;2023-06-04T03:14:28;7.53;;;2.95;;
40871;SDS011;26591;43.264;26.940;2023-06-04T03:17:02;5.82;;;2.97;;
40871;SDS011;26591;43.264;26.940;2023-06-04T03:19:33;6.32;;;3.03;;
40871;SDS011;26591;43.264;26.940;2023-06-04T03:22:02;9.27;;;3.92;;
40871;SDS011;26591;43.264;26.940;2023-06-04T03:24:31;11.27;;;3.00;;
40871;SDS011;26591;43.264;26.940;2023-06-04T03:27:01;10.05;;;3.40;;
40871;SDS011;26591;43.264;26.940;2023-06-04T03:29:31;19.02;;;3.47;;
40871;SDS011;26591;43.264;26.940;2023-06-04T03:31:57;6.47;;;3.22;;
40871;SDS011;26591;43.264;26.940;2023-06-04T03:34:23;9.20;;;3.20;;
40871;SDS011;26591;43.264;26.940;2023-06-04T03:36:52;8.27;;;2.67;;
40871;SDS011;26591;43.264;26.940;2023-06-04T03:39:21;5.50;;;2.63;;
40871;SDS011;26591;43.264;26.940;2023-06-04T03:41:47;14.50;;;5.00;;
40871;SDS011;26591;43.264;26.940;2023-06-04T03:44:14;8.85;;;2.67;;
40871;SDS011;26591;43.264;26.940;2023-06-04T03:46:40;6.32;;;3.10;;
40871;SDS011;26591;43.264;26.940;2023-06-04T03:49:06;8.32;;;3.30;;
40871;SDS011;26591;43.264;26.940;2023-06-04T03:51:32;12.60;;;2.75;;
40871;SDS011;26591;43.264;26.940;2023-06-04T03:53:58;5.93;;;2.92;;
40871;SDS011;26591;43.264;26.940;2023-06-04T03:56:24;7.70;;;2.97;;
40871;SDS011;26591;43.264;26.940;2023-06-04T03:58:52;6.55;;;2.70;;
40871;SDS011;26591;43.264;26.940;2023-06-04T04:01:18;4.28;;;2.20;;
40871;SDS011;26591;43.264;26.940;2023-06-04T04:03:43;8.05;;;2.72;;
40871;SDS011;26591;43.264;26.940;2023-06-04T04:06:14;8.90;;;2.42;;
40871;SDS011;26591;43.264;26.940;2023-06-04T04:08:39;7.25;;;2.95;;
40871;SDS011;26591;43.264;26.940;2023-06-04T04:11:16;10.60;;;2.78;;
40871;SDS011;26591;43.264;26.940;2023-06-04T04:13:42;9.25;;;2.90;;
40871;SDS011;26591;43.264;26.940;2023-06-04T04:16:09;8.57;;;2.73;;
40871;SDS011;26591;43.264;26.940;2023-06-04T04:18:35;8.10;;;2.92;;
40871;SDS011;26591;43.264;26.940;2023-06-04T04:21:02;8.68;;;3.28;;
40871;SDS011;26591;43.264;26.940;2023-06-04T04:23:28;9.25;;;3.65;;
40871;SDS011;26591;43.264;26.940;2023-06-04T04:25:55;8.27;;;2.97;;
40871;SDS011;26591;43.264;26.940;2023-06-04T04:28:26;22.65;;;5.43;;
40871;SDS011;26591;43.264;26.940;2023-06-04T04:30:53;14.70;;;3.00;;
40871;SDS011;26591;43.264;26.940;2023-06-04T04:33:22;6.85;;;3.10;;
40871;SDS011;26591;43.264;26.940;2023-06-04T04:35:51;8.33;;;2.70;;
40871;SDS011;26591;43.264;26.940;2023-06-04T04:38:21;7.07;;;3.03;;
40871;SDS011;26591;43.264;26.940;2023-06-04T04:40:49;6.72;;;2.85;;
40871;SDS011;26591;43.264;26.940;2023-06-04T04:43:17;8.70;;;2.70;;
40871;SDS011;26591;43.264;26.940;2023-06-04T04:45:53;6.93;;;2.58;;
40871;SDS011;26591;43.264;26.940;2023-06-04T04:48:18;9.18;;;3.03;;
40871;SDS011;26591;43.264;26.940;2023-06-04T04:50:44;8.20;;;3.15;;
40871;SDS011;26591;43.264;26.940;2023-06-04T04:53:09;7.20;;;2.90;;
40871;SDS011;26591;43.264;26.940;2023-06-04T04:55:35;13.02;;;3.30;;
40871;SDS011;26591;43.264;26.940;2023-06-04T04:58:00;5.15;;;2.95;;
40871;SDS011;26591;43.264;26.940;2023-06-04T05:00:26;8.57;;;2.83;;
40871;SDS011;26591;43.264;26.940;2023-06-04T05:02:52;6.15;;;2.80;;
40871;SDS011;26591;43.264;26.940;2023-06-04T05:05:18;7.18;;;3.25;;
40871;SDS011;26591;43.264;26.940;2023-06-04T05:07:43;15.57;;;3.45;;
40871;SDS011;26591;43.264;26.940;2023-06-04T05:10:09;7.40;;;2.60;;
40871;SDS011;26591;43.264;26.940;2023-06-04T05:12:34;7.97;;;2.40;;
40871;SDS011;26591;43.264;26.940;2023-06-04T05:15:00;13.13;;;2.78;;
40871;SDS011;26591;43.264;26.940;2023-06-04T05:17:25;5.18;;;2.58;;
40871;SDS011;26591;43.264;26.940;2023-06-04T05:19:55;8.50;;;2.80;;
40871;SDS011;26591;43.264;26.940;2023-06-04T05:22:36;4.72;;;2.63;;
40871;SDS011;26591;43.264;26.940;2023-06-04T05:25:02;3.97;;;2.60;;
40871;SDS011;26591;43.264;26.940;2023-06-04T05:27:28;8.52;;;3.90;;
40871;SDS011;26591;43.264;26.940;2023-06-04T05:29:53;5.65;;;2.55;;
40871;SDS011;26591;43.264;26.940;2023-06-04T05:32:32;4.78;;;2.33;;
40871;SDS011;26591;43.264;26.940;2023-06-04T05:34:57;6.10;;;2.50;;
40871;SDS011;26591;43.264;26.940;2023-06-04T05:37:24;8.82;;;2.80;;
40871;SDS011;26591;43.264;26.940;2023-06-04T05:39:52;8.10;;;2.83;;
40871;SDS011;26591;43.264;26.940;2023-06-04T05:42:18;5.07;;;2.75;;
40871;SDS011;26591;43.264;26.940;2023-06-04T05:44:43;8.05;;;2.78;;
40871;SDS011;26591;43.264;26.940;2023-06-04T05:47:09;5.88;;;2.55;;
40871;SDS011;26591;43.264;26.940;2023-06-04T05:49:34;6.53;;;2.60;;
40871;SDS011;26591;43.264;26.940;2023-06-04T05:52:00;11.35;;;3.08;;
40871;SDS011;26591;43.264;26.940;2023-06-04T05:54:26;13.80;;;4.00;;
40871;SDS011;26591;43.264;26.940;2023-06-04T05:56:55;6.68;;;2.50;;
40871;SDS011;26591;43.264;26.940;2023-06-04T05:59:21;9.38;;;2.65;;
40871;SDS011;26591;43.264;26.940;2023-06-04T06:01:46;7.63;;;2.70;;
40871;SDS011;26591;43.264;26.940;2023-06-04T06:04:13;8.85;;;2.67;;
40871;SDS011;26591;43.264;26.940;2023-06-04T06:06:39;10.40;;;2.20;;
40871;SDS011;26591;43.264;26.940;2023-06-04T06:09:04;7.85;;;2.30;;
40871;SDS011;26591;43.264;26.940;2023-06-04T06:11:34;12.20;;;2.33;;
40871;SDS011;26591;43.264;26.940;2023-06-04T06:14:00;6.90;;;2.40;;
40871;SDS011;26591;43.264;26.940;2023-06-04T06:16:25;4.03;;;2.40;;
40871;SDS011;26591;43.264;26.940;2023-06-04T06:18:51;5.53;;;2.05;;
40871;SDS011;26591;43.264;26.940;2023-06-04T06:21:17;7.47;;;2.42;;
40871;SDS011;26591;43.264;26.940;2023-06-04T06:23:42;9.75;;;2.65;;
40871;SDS011;26591;43.264;26.940;2023-06-04T06:26:08;9.93;;;2.47;;
40871;SDS011;26591;43.264;26.940;2023-06-04T06:28:33;8.52;;;2.85;;
40871;SDS011;26591;43.264;26.940;2023-06-04T06:31:01;4.57;;;2.50;;
40871;SDS011;26591;43.264;26.940;2023-06-04T06:33:27;8.88;;;2.50;;
40871;SDS011;26591;43.264;26.940;2023-06-04T06:35:52;3.67;;;2.45;;
40871;SDS011;26591;43.264;26.940;2023-06-04T06:38:18;10.25;;;2.60;;
40871;SDS011;26591;43.264;26.940;2023-06-04T06:40:44;10.13;;;2.60;;
40871;SDS011;26591;43.264;26.940;2023-06-04T06:43:09;10.43;;;3.40;;
40871;SDS011;26591;43.264;26.940;2023-06-04T06:45:35;12.63;;;3.17;;
40871;SDS011;26591;43.264;26.940;2023-06-04T06:48:01;5.88;;;2.13;;
40871;SDS011;26591;43.264;26.940;2023-06-04T06:50:27;7.63;;;2.80;;
40871;SDS011;26591;43.264;26.940;2023-06-04T06:52:52;7.25;;;2.80;;
40871;SDS011;26591;43.264;26.940;2023-06-04T06:55:18;11.55;;;2.65;;
40871;SDS011;26591;43.264;26.940;2023-06-04T06:57:43;6.72;;;2.60;;
40871;SDS011;26591;43.264;26.940;2023-06-04T07:00:10;6.00;;;2.70;;
40871;SDS011;26591;43.264;26.940;2023-06-04T07:02:36;6.68;;;3.20;;
40871;SDS011;26591;43.264;26.940;2023-06-04T07:05:01;7.72;;;2.50;;
40871;SDS011;26591;43.264;26.940;2023-06-04T07:07:29;8.40;;;3.17;;
40871;SDS011;26591;43.264;26.940;2023-06-04T07:09:54;5.13;;;2.60;;
40871;SDS011;26591;43.264;26.940;2023-06-04T07:12:20;6.57;;;2.53;;
40871;SDS011;26591;43.264;26.940;2023-06-04T07:14:45;6.82;;;2.22;;
40871;SDS011;26591;43.264;26.940;2023-06-04T07:17:11;6.78;;;2.72;;
40871;SDS011;26591;43.264;26.940;2023-06-04T07:19:36;9.93;;;2.97;;
40871;SDS011;26591;43.264;26.940;2023-06-04T07:22:02;11.90;;;2.83;;
40871;SDS011;26591;43.264;26.940;2023-06-04T07:24:27;7.45;;;3.50;;
40871;SDS011;26591;43.264;26.940;2023-06-04T07:26:53;10.48;;;2.50;;
40871;SDS011;26591;43.264;26.940;2023-06-04T07:29:18;5.60;;;2.47;;
40871;SDS011;26591;43.264;26.940;2023-06-04T07:31:44;5.78;;;2.15;;
40871;SDS011;26591;43.264;26.940;2023-06-04T07:34:10;4.65;;;1.95;;
40871;SDS011;26591;43.264;26.940;2023-06-04T07:36:35;6.22;;;2.55;;
40871;SDS011;26591;43.264;26.940;2023-06-04T07:39:01;10.77;;;2.50;;
40871;SDS011;26591;43.264;26.940;2023-06-04T07:41:29;13.43;;;3.45;;
40871;SDS011;26591;43.264;26.940;2023-06-04T07:43:55;8.00;;;2.50;;
40871;SDS011;26591;43.264;26.940;2023-06-04T07:46:21;10.95;;;2.72;;
40871;SDS011;26591;43.264;26.940;2023-06-04T07:48:46;7.40;;;2.05;;
40871;SDS011;26591;43.264;26.940;2023-06-04T07:51:12;6.00;;;2.40;;
40871;SDS011;26591;43.264;26.940;2023-06-04T07:53:38;4.40;;;2.20;;
40871;SDS011;26591;43.264;26.940;2023-06-04T07:56:04;5.70;;;2.03;;
40871;SDS011;26591;43.264;26.940;2023-06-04T07:58:31;6.30;;;2.25;;
40871;SDS011;26591;43.264;26.940;2023-06-04T08:00:56;6.75;;;2.20;;
40871;SDS011;26591;43.264;26.940;2023-06-04T08:03:22;5.50;;;2.35;;
40871;SDS011;26591;43.264;26.940;2023-06-04T08:05:48;7.30;;;2.45;;
40871;SDS011;26591;43.264;26.940;2023-06-04T08:08:14;7.80;;;2.90;;
40871;SDS011;26591;43.264;26.940;2023-06-04T08:10:40;6.93;;;2.53;;
40871;SDS011;26591;43.264;26.940;2023-06-04T08:13:05;6.07;;;2.40;;
40871;SDS011;26591;43.264;26.940;2023-06-04T08:15:31;5.95;;;2.60;;
40871;SDS011;26591;43.264;26.940;2023-06-04T08:17:56;9.77;;;2.50;;
40871;SDS011;26591;43.264;26.940;2023-06-04T08:20:22;4.60;;;2.20;;
40871;SDS011;26591;43.264;26.940;2023-06-04T08:22:49;5.57;;;2.40;;
40871;SDS011;26591;43.264;26.940;2023-06-04T08:25:15;3.40;;;2.13;;
40871;SDS011;26591;43.264;26.940;2023-06-04T08:27:41;2.90;;;1.95;;
40871;SDS011;26591;43.264;26.940;2023-06-04T08:30:07;10.95;;;2.35;;
40871;SDS011;26591;43.264;26.940;2023-06-04T08:32:33;12.27;;;2.35;;
40871;SDS011;26591;43.264;26.940;2023-06-04T08:34:59;4.25;;;1.98;;
40871;SDS011;26591;43.264;26.940;2023-06-04T08:37:25;7.15;;;2.00;;
40871;SDS011;26591;43.264;26.940;2023-06-04T08:39:50;7.45;;;2.28;;
40871;SDS011;26591;43.264;26.940;2023-06-04T08:44:56;7.32;;;2.00;;
40871;SDS011;26591;43.264;26.940;2023-06-04T08:47:23;8.82;;;2.50;;
40871;SDS011;26591;43.264;26.940;2023-06-04T08:49:51;7.25;;;2.63;;
40871;SDS011;26591;43.264;26.940;2023-06-04T08:52:17;4.65;;;2.17;;
40871;SDS011;26591;43.264;26.940;2023-06-04T08:54:48;10.57;;;2.42;;
40871;SDS011;26591;43.264;26.940;2023-06-04T08:57:14;11.60;;;2.30;;
40871;SDS011;26591;43.264;26.940;2023-06-04T08:59:41;7.68;;;2.20;;
40871;SDS011;26591;43.264;26.940;2023-06-04T09:02:07;5.18;;;1.98;;
40871;SDS011;26591;43.264;26.940;2023-06-04T09:04:33;6.63;;;2.47;;
40871;SDS011;26591;43.264;26.940;2023-06-04T09:07:02;5.72;;;1.95;;
40871;SDS011;26591;43.264;26.940;2023-06-04T09:09:29;5.70;;;2.00;;
40871;SDS011;26591;43.264;26.940;2023-06-04T09:11:56;4.57;;;1.70;;
40871;SDS011;26591;43.264;26.940;2023-06-04T09:14:22;7.35;;;2.30;;
40871;SDS011;26591;43.264;26.940;2023-06-04T09:16:49;8.07;;;1.75;;
40871;SDS011;26591;43.264;26.940;2023-06-04T09:19:17;3.15;;;1.70;;
40871;SDS011;26591;43.264;26.940;2023-06-04T09:24:12;5.63;;;1.63;;
40871;SDS011;26591;43.264;26.940;2023-06-04T09:26:37;4.05;;;2.00;;
40871;SDS011;26591;43.264;26.940;2023-06-04T09:29:03;6.65;;;1.95;;
40871;SDS011;26591;43.264;26.940;2023-06-04T09:31:31;9.38;;;2.00;;
40871;SDS011;26591;43.264;26.940;2023-06-04T09:34:02;6.05;;;1.92;;
40871;SDS011;26591;43.264;26.940;2023-06-04T09:36:32;5.03;;;1.80;;
40871;SDS011;26591;43.264;26.940;2023-06-04T09:38:58;5.13;;;2.00;;
40871;SDS011;26591;43.264;26.940;2023-06-04T09:41:25;5.05;;;1.70;;
40871;SDS011;26591;43.264;26.940;2023-06-04T09:43:51;4.25;;;1.88;;
40871;SDS011;26591;43.264;26.940;2023-06-04T09:46:27;6.53;;;1.90;;
40871;SDS011;26591;43.264;26.940;2023-06-04T09:48:59;3.17;;;1.73;;
40871;SDS011;26591;43.264;26.940;2023-06-04T09:51:29;3.42;;;1.85;;
40871;SDS011;26591;43.264;26.940;2023-06-04T09:53:57;4.95;;;2.00;;
40871;SDS011;26591;43.264;26.940;2023-06-04T09:56:26;3.72;;;1.73;;
40871;SDS011;26591;43.264;26.940;2023-06-04T09:58:57;4.88;;;2.10;;
40871;SDS011;26591;43.264;26.940;2023-06-04T10:01:28;5.25;;;1.90;;
40871;SDS011;26591;43.264;26.940;2023-06-04T10:03:55;3.63;;;1.90;;
40871;SDS011;26591;43.264;26.940;2023-06-04T10:06:23;3.92;;;1.60;;
40871;SDS011;26591;43.264;26.940;2023-06-04T10:08:50;3.25;;;1.92;;
40871;SDS011;26591;43.264;26.940;2023-06-04T10:11:25;4.20;;;1.83;;
40871;SDS011;26591;43.264;26.940;2023-06-04T10:14:41;7.68;;;1.80;;
40871;SDS011;26591;43.264;26.940;2023-06-04T10:16:46;5.55;;;2.10;;
40871;SDS011;26591;43.264;26.940;2023-06-04T10:19:13;5.15;;;2.05;;
40871;SDS011;26591;43.264;26.940;2023-06-04T10:21:40;7.07;;;1.70;;
40871;SDS011;26591;43.264;26.940;2023-06-04T10:24:07;4.97;;;1.70;;
40871;SDS011;26591;43.264;26.940;2023-06-04T10:26:33;5.88;;;1.95;;
40871;SDS011;26591;43.264;26.940;2023-06-04T10:29:01;4.10;;;1.70;;
40871;SDS011;26591;43.264;26.940;2023-06-04T10:31:27;3.65;;;2.00;;
40871;SDS011;26591;43.264;26.940;2023-06-04T10:33:54;6.72;;;1.92;;
40871;SDS011;26591;43.264;26.940;2023-06-04T10:36:21;4.50;;;1.63;;
40871;SDS011;26591;43.264;26.940;2023-06-04T10:38:49;5.93;;;1.70;;
40871;SDS011;26591;43.264;26.940;2023-06-04T10:41:17;4.70;;;1.48;;
40871;SDS011;26591;43.264;26.940;2023-06-04T10:43:44;7.45;;;1.77;;
40871;SDS011;26591;43.264;26.940;2023-06-04T10:46:13;6.72;;;1.65;;
40871;SDS011;26591;43.264;26.940;2023-06-04T10:48:52;3.40;;;1.90;;
40871;SDS011;26591;43.264;26.940;2023-06-04T10:51:34;4.97;;;1.80;;
40871;SDS011;26591;43.264;26.940;2023-06-04T10:54:02;6.45;;;1.80;;
40871;SDS011;26591;43.264;26.940;2023-06-04T10:56:29;9.73;;;2.25;;
40871;SDS011;26591;43.264;26.940;2023-06-04T10:59:16;6.13;;;1.80;;
40871;SDS011;26591;43.264;26.940;2023-06-04T11:01:42;5.20;;;1.55;;
40871;SDS011;26591;43.264;26.940;2023-06-04T11:04:18;5.35;;;2.10;;
40871;SDS011;26591;43.264;26.940;2023-06-04T11:07:02;5.78;;;1.80;;
40871;SDS011;26591;43.264;26.940;2023-06-04T11:09:37;5.60;;;1.75;;
40871;SDS011;26591;43.264;26.940;2023-06-04T11:12:12;7.10;;;1.92;;
40871;SDS011;26591;43.264;26.940;2023-06-04T11:14:38;5.93;;;1.52;;
40871;SDS011;26591;43.264;26.940;2023-06-04T11:17:13;7.63;;;1.67;;
40871;SDS011;26591;43.264;26.940;2023-06-04T11:19:39;5.88;;;1.73;;
40871;SDS011;26591;43.264;26.940;2023-06-04T11:22:05;4.30;;;1.80;;
40871;SDS011;26591;43.264;26.940;2023-06-04T11:24:31;4.72;;;1.45;;
40871;SDS011;26591;43.264;26.940;2023-06-04T11:26:57;3.88;;;1.55;;
40871;SDS011;26591;43.264;26.940;2023-06-04T11:29:27;5.95;;;2.58;;
40871;SDS011;26591;43.264;26.940;2023-06-04T11:31:53;6.47;;;1.60;;
40871;SDS011;26591;43.264;26.940;2023-06-04T11:34:28;5.35;;;1.67;;
40871;SDS011;26591;43.264;26.940;2023-06-04T11:36:54;35.30;;;4.35;;
40871;SDS011;26591;43.264;26.940;2023-06-04T11:39:21;4.90;;;2.10;;
40871;SDS011;26591;43.264;26.940;2023-06-04T11:41:47;7.60;;;1.90;;
40871;SDS011;26591;43.264;26.940;2023-06-04T11:44:17;5.22;;;2.03;;
40871;SDS011;26591;43.264;26.940;2023-06-04T11:46:44;7.97;;;2.15;;
40871;SDS011;26591;43.264;26.940;2023-06-04T11:49:16;10.02;;;1.85;;
40871;SDS011;26591;43.264;26.940;2023-06-04T11:51:49;10.60;;;3.10;;
40871;SDS011;26591;43.264;26.940;2023-06-04T11:54:16;9.85;;;2.70;;
40871;SDS011;26591;43.264;26.940;2023-06-04T11:56:43;11.00;;;2.22;;
40871;SDS011;26591;43.264;26.940;2023-06-04T11:59:10;5.10;;;1.85;;
40871;SDS011;26591;43.264;26.940;2023-06-04T12:01:40;4.55;;;2.25;;
40871;SDS011;26591;43.264;26.940;2023-06-04T12:09:25;5.32;;;1.88;;
40871;SDS011;26591;43.264;26.940;2023-06-04T12:12:02;6.65;;;2.05;;
40871;SDS011;26591;43.264;26.940;2023-06-04T12:14:29;4.88;;;1.88;;
40871;SDS011;26591;43.264;26.940;2023-06-04T12:19:24;3.13;;;1.60;;
40871;SDS011;26591;43.264;26.940;2023-06-04T12:22:06;4.15;;;2.15;;
40871;SDS011;26591;43.264;26.940;2023-06-04T12:24:33;6.43;;;1.90;;
40871;SDS011;26591;43.264;26.940;2023-06-04T12:27:10;5.97;;;1.73;;
40871;SDS011;26591;43.264;26.940;2023-06-04T12:29:36;5.25;;;1.90;;
40871;SDS011;26591;43.264;26.940;2023-06-04T12:32:03;5.68;;;1.75;;
40871;SDS011;26591;43.264;26.940;2023-06-04T12:34:39;5.88;;;1.70;;
40871;SDS011;26591;43.264;26.940;2023-06-04T12:37:05;5.20;;;1.90;;
40871;SDS011;26591;43.264;26.940;2023-06-04T12:39:35;6.70;;;1.70;;
40871;SDS011;26591;43.264;26.940;2023-06-04T12:42:07;4.78;;;1.85;;
40871;SDS011;26591;43.264;26.940;2023-06-04T12:44:37;5.65;;;2.03;;
40871;SDS011;26591;43.264;26.940;2023-06-04T12:47:04;2.85;;;1.70;;
40871;SDS011;26591;43.264;26.940;2023-06-04T12:49:30;3.08;;;1.50;;
40871;SDS011;26591;43.264;26.940;2023-06-04T12:51:55;9.30;;;1.88;;
40871;SDS011;26591;43.264;26.940;2023-06-04T12:54:21;4.03;;;1.70;;
40871;SDS011;26591;43.264;26.940;2023-06-04T12:56:47;3.92;;;1.60;;
40871;SDS011;26591;43.264;26.940;2023-06-04T12:59:13;5.43;;;1.98;;
40871;SDS011;26591;43.264;26.940;2023-06-04T13:01:39;3.97;;;1.88;;
40871;SDS011;26591;43.264;26.940;2023-06-04T13:04:04;5.65;;;1.48;;
40871;SDS011;26591;43.264;26.940;2023-06-04T13:06:30;15.43;;;2.25;;
40871;SDS011;26591;43.264;26.940;2023-06-04T13:08:56;5.18;;;1.70;;
40871;SDS011;26591;43.264;26.940;2023-06-04T13:11:22;4.32;;;2.05;;
40871;SDS011;26591;43.264;26.940;2023-06-04T13:13:47;7.25;;;2.10;;
40871;SDS011;26591;43.264;26.940;2023-06-04T13:16:16;10.10;;;1.80;;
40871;SDS011;26591;43.264;26.940;2023-06-04T13:18:41;8.05;;;2.20;;
40871;SDS011;26591;43.264;26.940;2023-06-04T13:21:07;5.35;;;1.67;;
40871;SDS011;26591;43.264;26.940;2023-06-04T13:23:32;6.50;;;1.90;;
40871;SDS011;26591;43.264;26.940;2023-06-04T13:25:58;4.18;;;1.50;;
40871;SDS011;26591;43.264;26.940;2023-06-04T13:28:23;4.60;;;1.85;;
40871;SDS011;26591;43.264;26.940;2023-06-04T13:30:49;3.83;;;1.73;;
40871;SDS011;26591;43.264;26.940;2023-06-04T13:33:14;6.82;;;1.80;;
40871;SDS011;26591;43.264;26.940;2023-06-04T13:35:40;3.33;;;1.77;;
40871;SDS011;26591;43.264;26.940;2023-06-04T13:38:07;6.07;;;1.65;;
40871;SDS011;26591;43.264;26.940;2023-06-04T13:40:36;8.68;;;1.83;;
40871;SDS011;26591;43.264;26.940;2023-06-04T13:43:02;6.82;;;1.98;;
40871;SDS011;26591;43.264;26.940;2023-06-04T13:45:27;4.50;;;1.52;;
40871;SDS011;26591;43.264;26.940;2023-06-04T13:48:11;5.30;;;1.80;;
40871;SDS011;26591;43.264;26.940;2023-06-04T13:50:37;7.97;;;2.00;;
40871;SDS011;26591;43.264;26.940;2023-06-04T13:53:05;9.68;;;2.05;;
40871;SDS011;26591;43.264;26.940;2023-06-04T13:55:30;5.50;;;2.00;;
40871;SDS011;26591;43.264;26.940;2023-06-04T13:57:56;4.80;;;1.98;;
40871;SDS011;26591;43.264;26.940;2023-06-04T14:00:21;7.50;;;2.20;;
40871;SDS011;26591;43.264;26.940;2023-06-04T14:02:47;5.35;;;1.80;;
40871;SDS011;26591;43.264;26.940;2023-06-04T14:05:13;6.82;;;1.70;;
40871;SDS011;26591;43.264;26.940;2023-06-04T14:07:43;8.82;;;2.05;;
40871;SDS011;26591;43.264;26.940;2023-06-04T14:10:12;4.47;;;1.92;;
40871;SDS011;26591;43.264;26.940;2023-06-04T14:12:38;7.55;;;1.95;;
40871;SDS011;26591;43.264;26.940;2023-06-04T14:15:09;5.82;;;2.20;;
40871;SDS011;26591;43.264;26.940;2023-06-04T14:17:36;4.40;;;1.98;;
40871;SDS011;26591;43.264;26.940;2023-06-04T14:20:03;4.55;;;1.88;;
40871;SDS011;26591;43.264;26.940;2023-06-04T14:22:36;7.65;;;1.98;;
40871;SDS011;26591;43.264;26.940;2023-06-04T14:25:06;9.60;;;2.15;;
40871;SDS011;26591;43.264;26.940;2023-06-04T14:27:48;5.95;;;2.00;;
40871;SDS011;26591;43.264;26.940;2023-06-04T14:30:13;3.20;;;1.90;;
40871;SDS011;26591;43.264;26.940;2023-06-04T14:32:39;11.90;;;2.25;;
40871;SDS011;26591;43.264;26.940;2023-06-04T14:35:05;4.32;;;1.50;;
40871;SDS011;26591;43.264;26.940;2023-06-04T14:37:31;9.38;;;1.90;;
40871;SDS011;26591;43.264;26.940;2023-06-04T14:39:56;4.57;;;1.90;;
40871;SDS011;26591;43.264;26.940;2023-06-04T14:42:22;2.85;;;1.75;;
40871;SDS011;26591;43.264;26.940;2023-06-04T14:44:47;4.20;;;2.00;;
40871;SDS011;26591;43.264;26.940;2023-06-04T14:47:13;5.00;;;2.08;;
40871;SDS011;26591;43.264;26.940;2023-06-04T14:49:39;7.85;;;2.42;;
40871;SDS011;26591;43.264;26.940;2023-06-04T14:52:04;7.75;;;2.03;;
40871;SDS011;26591;43.264;26.940;2023-06-04T14:54:30;4.15;;;1.70;;
40871;SDS011;26591;43.264;26.940;2023-06-04T14:56:58;3.65;;;2.03;;